Date,TemperatureHighF,TemperatureAvgF,TemperatureLowF,DewpointHighF,DewpointAvgF,DewpointLowF,HumidityHigh,HumidityAvg,HumidityLow,PressureMaxIn,PressureMinIn,WindSpeedMaxMPH,WindSpeedAvgMPH,GustSpeedMaxMPH,PrecipitationSumIn
2013-3-1,31,26,23,29,23,19,94,87,79,0.00,40.00,6,4,12,0.01
2013-3-2,25,23,21,20,18,16,89,82,68,0.00,40.00,5,3,13,0.01
2013-3-3,26,22,19,19,16,14,88,78,65,0.00,40.00,8,5,19,0.00
2013-3-4,25,21,18,19,17,13,90,82,76,0.00,40.00,6,5,16,0.00
2013-3-5,47,30,20,24,20,15,89,67,40,0.00,40.00,5,3,12,0.14
2013-3-6,43,34,27,27,23,20,78,63,44,0.00,40.00,4,2,12,0.10
2013-3-7,36,32,30,30,29,27,97,86,76,0.00,40.00,6,2,13,0.00
2013-3-8,42,33,24,29,24,19,96,73,39,0.00,40.00,8,4,17,0.13
2013-3-9,55,35,19,28,21,16,92,63,22,0.00,40.00,5,1,8,0.11
2013-3-10,66,51,36,26,22,18,57,32,20,0.00,40.00,10,6,22,0.00
2013-3-11,60,52,47,44,27,22,86,40,27,0.00,40.00,13,8,27,0.06
2013-3-12,48,37,32,44,33,27,96,86,75,0.00,40.00,11,3,24,0.54
2013-3-13,32,28,22,28,22,14,89,76,58,0.00,40.00,11,5,22,0.02
2013-3-14,33,25,21,21,15,12,91,66,42,0.00,40.00,9,6,25,0.04
2013-3-15,34,27,16,31,23,13,93,86,72,0.00,40.00,6,3,13,0.10
2013-3-16,34,29,24,28,24,19,92,81,72,0.00,40.00,5,2,10,0.10
2013-3-17,35,26,18,21,16,12,89,69,43,0.00,40.00,5,2,13,0.01
2013-3-18,31,26,18,28,19,12,90,74,53,0.00,40.00,12,7,26,0.01
2013-3-19,35,30,23,32,25,18,97,81,58,0.00,40.00,9,5,20,0.18
2013-3-20,30,24,14,23,18,10,93,79,65,0.00,40.00,9,4,20,0.17
2013-3-21,28,21,14,21,14,8,92,75,43,0.00,40.00,6,2,15,0.01
2013-3-22,28,24,21,20,19,17,91,79,64,0.00,40.00,7,3,22,0.08
2013-3-23,39,29,24,22,20,18,83,69,45,0.00,40.00,8,3,20,0.04
2013-3-24,44,32,20,21,18,13,92,62,33,0.00,40.00,6,2,14,0.01
2013-3-25,39,33,29,32,26,20,94,76,55,0.00,40.00,4,2,12,0.11
2013-3-26,45,34,23,29,25,22,95,74,43,0.00,40.00,9,3,16,0.01
2013-3-27,38,33,29,30,25,22,85,72,59,0.00,40.00,8,4,17,0.00
2013-3-28,40,35,33,31,30,28,90,82,67,0.00,40.00,5,3,16,0.10
2013-3-29,49,37,31,32,27,18,94,70,34,0.00,40.00,8,2,17,0.01
2013-3-30,54,38,22,27,20,16,92,56,23,0.00,40.00,6,2,16,0.00
2013-3-31,52,42,33,42,29,-100,94,67,36,0.00,40.00,9,3,19,0.15